createdAt,value
2022-11-14T00:01:10.837Z,5.40
2022-11-14T00:03:40.207Z,5.40
2022-11-14T00:06:09.139Z,5.40
2022-11-14T00:08:37.181Z,5.40
2022-11-14T00:11:05.498Z,5.40
2022-11-14T00:13:33.321Z,5.40
2022-11-14T00:16:01.113Z,5.30
2022-11-14T00:18:29.318Z,5.30
2022-11-14T00:20:58.582Z,5.30
2022-11-14T00:23:26.366Z,5.20
2022-11-14T00:25:54.122Z,5.30
2022-11-14T00:28:21.917Z,5.30
2022-11-14T00:30:50.253Z,5.30
2022-11-14T00:33:20.893Z,5.30
2022-11-14T00:35:53.919Z,5.30
2022-11-14T00:38:23.552Z,5.30
2022-11-14T00:40:51.383Z,5.30
2022-11-14T00:43:19.504Z,5.20
2022-11-14T00:45:47.882Z,5.20
2022-11-14T00:48:16.245Z,5.10
2022-11-14T00:50:44.191Z,5.10
2022-11-14T00:53:11.983Z,5.20
2022-11-14T00:55:41.288Z,5.20
2022-11-14T00:58:09.156Z,5.30
2022-11-14T01:00:37.095Z,5.30
2022-11-14T01:03:05.085Z,5.30
2022-11-14T01:05:32.888Z,5.20
2022-11-14T01:08:00.658Z,5.20
2022-11-14T01:10:28.419Z,5.20
2022-11-14T01:12:57.549Z,5.20
2022-11-14T01:15:25.353Z,5.20
2022-11-14T01:17:53.117Z,5.20
2022-11-14T01:20:20.943Z,5.30
2022-11-14T01:22:48.710Z,5.30
2022-11-14T01:25:16.641Z,5.30
2022-11-14T01:27:44.390Z,5.20
2022-11-14T01:30:14.890Z,5.20
2022-11-14T01:32:42.669Z,5.00
2022-11-14T01:35:10.445Z,4.90
2022-11-14T01:37:38.189Z,5.00
2022-11-14T01:40:06.852Z,5.00
2022-11-14T01:42:35.353Z,5.00
2022-11-14T01:45:03.146Z,5.00
2022-11-14T01:47:34.196Z,4.80
2022-11-14T01:50:05.493Z,4.80
2022-11-14T01:52:36.929Z,4.90
2022-11-14T01:55:08.123Z,4.90
2022-11-14T01:57:39.317Z,4.90
2022-11-14T02:00:10.913Z,4.90
2022-11-14T02:02:40.245Z,4.90
2022-11-14T02:05:11.909Z,4.90
2022-11-14T02:07:41.961Z,4.80
2022-11-14T02:10:15.880Z,4.70
2022-11-14T02:12:43.926Z,4.60
2022-11-14T02:15:11.947Z,4.70
2022-11-14T02:17:42.177Z,4.50
2022-11-14T02:20:20.531Z,4.50
2022-11-14T02:22:48.314Z,4.60
2022-11-14T02:25:19.115Z,4.60
2022-11-14T02:27:46.998Z,4.60
2022-11-14T02:30:18.302Z,4.60
2022-11-14T02:35:35.559Z,4.70
2022-11-14T02:38:03.299Z,4.70
2022-11-14T02:40:31.077Z,4.60
2022-11-14T02:42:59.109Z,4.70
2022-11-14T02:45:27.077Z,4.70
2022-11-14T02:47:54.860Z,4.80
2022-11-14T02:50:22.596Z,4.80
2022-11-14T02:52:51.911Z,4.80
2022-11-14T02:55:19.676Z,4.80
2022-11-14T02:57:47.444Z,4.80
2022-11-14T03:00:15.949Z,4.80
2022-11-14T03:02:43.948Z,4.90
2022-11-14T03:05:11.824Z,4.80
2022-11-14T03:07:39.603Z,4.70
2022-11-14T03:10:09.782Z,4.70
2022-11-14T03:12:38.083Z,4.80
2022-11-14T03:15:07.282Z,4.70
2022-11-14T03:17:35.517Z,4.70
2022-11-14T03:20:03.402Z,4.70
2022-11-14T03:22:31.288Z,4.80
2022-11-14T03:24:59.056Z,4.90
2022-11-14T03:27:28.148Z,4.70
2022-11-14T03:29:55.929Z,4.70
2022-11-14T03:32:23.831Z,4.70
2022-11-14T03:34:51.785Z,4.60
2022-11-14T03:37:19.529Z,4.40
2022-11-14T03:39:47.327Z,4.40
2022-11-14T03:42:15.120Z,4.40
2022-11-14T03:44:44.202Z,4.50
2022-11-14T03:47:11.949Z,4.50
2022-11-14T03:49:40.643Z,4.40
2022-11-14T03:52:08.430Z,4.40
2022-11-14T03:54:36.202Z,4.40
2022-11-14T03:57:04.015Z,4.50
2022-11-14T03:59:31.846Z,4.60
2022-11-14T04:02:00.968Z,4.40
2022-11-14T04:04:28.951Z,4.40
2022-11-14T04:06:56.741Z,4.40
2022-11-14T04:09:24.517Z,4.50
2022-11-14T04:11:52.365Z,4.60
2022-11-14T04:14:20.145Z,4.60
2022-11-14T04:16:47.898Z,4.60
2022-11-14T04:19:17.496Z,4.60
2022-11-14T04:21:45.257Z,4.70
2022-11-14T04:24:12.998Z,4.60
2022-11-14T04:26:40.779Z,4.50
2022-11-14T04:29:08.537Z,4.50
2022-11-14T04:31:36.296Z,4.50
2022-11-14T04:34:04.138Z,4.60
2022-11-14T04:36:33.314Z,4.60
2022-11-14T04:39:01.545Z,4.50
2022-11-14T04:41:29.365Z,4.50
2022-11-14T04:43:57.114Z,4.50
2022-11-14T04:46:24.921Z,4.40
2022-11-14T04:48:52.665Z,4.20
2022-11-14T04:51:20.601Z,4.30
2022-11-14T04:53:49.673Z,4.20
2022-11-14T04:56:17.696Z,4.30
2022-11-14T04:58:45.494Z,4.30
2022-11-14T05:01:15.182Z,4.20
2022-11-14T05:03:43.102Z,4.10
2022-11-14T05:06:11.348Z,4.10
2022-11-14T05:08:39.126Z,4.20
2022-11-14T05:11:08.411Z,4.30
2022-11-14T05:13:36.200Z,4.40
2022-11-14T05:16:03.999Z,4.40
2022-11-14T05:18:32.231Z,4.40
2022-11-14T05:21:00.761Z,4.30
2022-11-14T05:23:29.029Z,4.30
2022-11-14T05:26:02.501Z,4.40
2022-11-14T05:28:32.062Z,4.30
2022-11-14T05:31:04.039Z,4.30
2022-11-14T05:33:32.285Z,4.40
2022-11-14T05:36:03.970Z,4.40
2022-11-14T05:38:32.367Z,4.40
2022-11-14T05:41:00.502Z,4.40
2022-11-14T05:43:31.749Z,4.50
2022-11-14T05:46:01.549Z,4.50
2022-11-14T05:48:31.284Z,4.60
2022-11-14T05:51:00.554Z,4.60
2022-11-14T05:53:29.851Z,4.60
2022-11-14T05:56:01.838Z,4.60
2022-11-14T05:58:31.910Z,4.60
2022-11-14T06:01:04.492Z,4.60
2022-11-14T06:03:33.821Z,4.60
2022-11-14T06:06:02.403Z,4.60
2022-11-14T06:08:30.788Z,4.50
2022-11-14T06:11:03.944Z,4.50
2022-11-14T06:13:33.411Z,4.60
2022-11-14T06:16:02.125Z,4.60
2022-11-14T06:18:30.543Z,4.60
2022-11-14T06:21:00.945Z,4.60
2022-11-14T06:23:29.467Z,4.60
2022-11-14T06:26:00.889Z,4.60
2022-11-14T06:28:29.274Z,4.50
2022-11-14T06:31:02.359Z,4.40
2022-11-14T06:33:34.107Z,4.50
2022-11-14T06:36:03.612Z,4.40
2022-11-14T06:38:32.929Z,4.30
2022-11-14T06:41:05.112Z,4.20
2022-11-14T06:43:36.349Z,4.10
2022-11-14T06:46:06.971Z,4.20
2022-11-14T06:48:35.593Z,4.20
2022-11-14T06:51:05.114Z,4.30
2022-11-14T06:53:34.330Z,4.30
2022-11-14T06:56:04.067Z,4.20
2022-11-14T06:58:34.037Z,4.30
2022-11-14T07:01:07.272Z,4.40
2022-11-14T07:03:35.533Z,4.40
2022-11-14T07:06:04.107Z,4.40
2022-11-14T07:08:32.744Z,4.40
2022-11-14T07:11:04.848Z,4.30
2022-11-14T07:13:33.522Z,4.40
2022-11-14T07:16:01.498Z,4.40
2022-11-14T07:18:33.105Z,4.40
2022-11-14T07:21:02.369Z,4.40
2022-11-14T07:23:31.302Z,4.50
2022-11-14T07:26:02.391Z,4.60
2022-11-14T07:28:30.647Z,4.60
2022-11-14T07:30:58.697Z,4.80
2022-11-14T07:33:26.845Z,4.90
2022-11-14T07:35:55.954Z,4.90
2022-11-14T07:38:23.960Z,5.00
2022-11-14T07:40:59.662Z,5.10
2022-11-14T07:43:28.662Z,5.10
2022-11-14T07:46:00.262Z,5.20
2022-11-14T07:48:28.411Z,5.30
2022-11-14T07:51:01.259Z,5.20
2022-11-14T07:53:29.747Z,5.20
2022-11-14T07:55:57.990Z,5.30
2022-11-14T07:58:25.791Z,5.40
2022-11-14T08:00:53.599Z,5.50
2022-11-14T08:03:21.467Z,5.40
2022-11-14T08:05:49.320Z,5.30
2022-11-14T08:08:18.429Z,5.40
2022-11-14T08:10:46.208Z,5.40
2022-11-14T08:16:12.011Z,5.40
2022-11-14T08:18:40.630Z,5.30
2022-11-14T08:21:08.757Z,5.30
2022-11-14T08:23:38.702Z,5.30
2022-11-14T08:26:06.849Z,5.30
2022-11-14T08:28:35.976Z,5.20
2022-11-14T08:31:05.047Z,5.30
2022-11-14T08:33:33.517Z,5.40
2022-11-14T08:36:02.429Z,5.40
2022-11-14T08:38:32.028Z,5.50
2022-11-14T08:41:01.797Z,5.50
2022-11-14T08:43:29.638Z,5.50
2022-11-14T08:46:01.936Z,5.40
2022-11-14T08:48:31.326Z,5.40
2022-11-14T08:51:02.818Z,5.30
2022-11-14T08:53:30.741Z,5.30
2022-11-14T08:55:58.526Z,5.50
2022-11-14T08:58:31.381Z,5.60
2022-11-14T09:01:03.702Z,5.60
2022-11-14T09:03:31.636Z,5.60
2022-11-14T09:06:00.249Z,5.80
2022-11-14T09:08:28.934Z,5.90
2022-11-14T09:11:04.868Z,5.90
2022-11-14T09:13:35.634Z,5.90
2022-11-14T09:16:03.549Z,6.00
2022-11-14T09:18:32.394Z,6.10
2022-11-14T09:21:05.065Z,6.20
2022-11-14T09:23:33.248Z,6.30
2022-11-14T09:26:05.359Z,6.30
2022-11-14T09:28:33.237Z,6.50
2022-11-14T09:31:03.025Z,6.60
2022-11-14T09:33:31.327Z,6.70
2022-11-14T09:35:59.884Z,6.80
2022-11-14T09:38:28.564Z,6.80
2022-11-14T09:41:05.897Z,6.80
2022-11-14T09:43:48.572Z,6.80
2022-11-14T09:46:23.454Z,6.90
2022-11-14T09:48:53.641Z,6.90
2022-11-14T09:51:23.065Z,7.00
2022-11-14T09:53:58.228Z,7.00
2022-11-14T09:56:27.381Z,7.00
2022-11-14T09:58:56.654Z,7.10
2022-11-14T10:01:37.629Z,7.10
2022-11-14T10:07:08.178Z,7.40
2022-11-14T10:09:51.393Z,7.50
2022-11-14T10:12:24.015Z,7.60
2022-11-14T10:15:07.556Z,7.60
2022-11-14T10:18:12.265Z,7.60
2022-11-14T10:20:46.076Z,7.60
2022-11-14T10:23:29.086Z,7.80
2022-11-14T10:26:03.257Z,7.70
2022-11-14T10:28:42.908Z,7.60
2022-11-14T10:31:22.236Z,7.80
2022-11-14T10:33:58.718Z,7.80
2022-11-14T10:36:44.800Z,7.80
2022-11-14T10:39:21.033Z,8.00
2022-11-14T10:42:00.758Z,8.00
2022-11-14T10:44:36.757Z,8.10
2022-11-14T10:47:08.191Z,8.10
2022-11-14T10:49:38.526Z,8.10
2022-11-14T10:52:11.638Z,8.10
2022-11-14T10:54:46.354Z,8.20
2022-11-14T10:57:17.237Z,8.30
2022-11-14T10:59:45.002Z,8.40
2022-11-14T11:02:12.901Z,8.60
2022-11-14T11:04:42.337Z,8.50
2022-11-14T11:07:42.328Z,8.50
2022-11-14T11:10:40.745Z,8.50
2022-11-14T11:13:15.780Z,8.40
2022-11-14T11:15:44.291Z,8.30
2022-11-14T11:18:28.232Z,8.30
2022-11-14T11:21:17.817Z,8.30
2022-11-14T11:23:53.844Z,7.60
2022-11-14T11:26:28.267Z,7.50
2022-11-14T11:29:08.743Z,7.60
2022-11-14T11:31:53.419Z,7.30
2022-11-14T11:34:25.356Z,7.20
2022-11-14T11:36:59.956Z,7.20
2022-11-14T11:39:30.937Z,7.10
2022-11-14T11:42:10.630Z,7.20
2022-11-14T11:44:43.426Z,7.30
2022-11-14T11:47:15.308Z,7.40
2022-11-14T11:49:53.023Z,7.50
2022-11-14T11:52:35.104Z,7.70
2022-11-14T11:55:14.209Z,7.70
2022-11-14T11:57:46.219Z,7.70
2022-11-14T12:00:17.841Z,7.80
2022-11-14T12:02:50.318Z,8.00
2022-11-14T12:05:23.347Z,8.10
2022-11-14T12:07:59.206Z,8.20
2022-11-14T12:10:30.110Z,8.30
2022-11-14T12:13:28.622Z,8.30
2022-11-14T12:16:12.709Z,8.60
2022-11-14T12:19:02.782Z,8.70
2022-11-14T12:21:48.215Z,8.90
2022-11-14T12:24:57.799Z,9.00
2022-11-14T12:27:40.265Z,9.10
2022-11-14T12:30:15.619Z,9.10
2022-11-14T12:32:47.325Z,9.30
2022-11-14T12:35:21.057Z,9.40
2022-11-14T12:37:55.624Z,9.50
2022-11-14T12:40:32.934Z,9.70
2022-11-14T12:43:02.647Z,9.70
2022-11-14T12:46:02.561Z,9.80
2022-11-14T12:48:33.493Z,9.90
2022-11-14T12:51:02.562Z,9.90
2022-11-14T12:53:44.517Z,10.00
2022-11-14T12:56:53.599Z,10.20
2022-11-14T12:59:34.748Z,10.20
2022-11-14T13:02:38.521Z,10.40
2022-11-14T13:05:39.893Z,10.40
2022-11-14T13:08:22.985Z,10.50
2022-11-14T13:10:50.757Z,10.60
2022-11-14T13:13:36.425Z,10.60
2022-11-14T13:16:35.109Z,10.50
2022-11-14T13:19:34.757Z,10.50
2022-11-14T13:22:42.042Z,10.40
2022-11-14T13:25:21.384Z,10.40
2022-11-14T13:31:18.966Z,10.50
2022-11-14T13:33:48.730Z,10.40
2022-11-14T13:36:28.598Z,10.50
2022-11-14T13:39:26.203Z,10.50
2022-11-14T13:42:25.651Z,10.40
2022-11-14T13:45:25.985Z,10.40
2022-11-14T13:48:24.397Z,10.50
2022-11-14T13:50:56.510Z,10.50
2022-11-14T13:53:29.414Z,10.50
2022-11-14T13:56:02.980Z,10.40
2022-11-14T13:59:05.198Z,10.40
2022-11-14T14:01:48.735Z,10.40
2022-11-14T14:04:30.714Z,10.40
2022-11-14T14:07:08.419Z,10.30
2022-11-14T14:09:48.984Z,10.30
2022-11-14T14:12:40.954Z,10.40
2022-11-14T14:15:19.185Z,10.40
2022-11-14T14:17:57.125Z,10.50
2022-11-14T14:20:34.494Z,10.50
2022-11-14T14:23:13.042Z,10.50
2022-11-14T14:25:52.425Z,10.40
2022-11-14T14:28:30.948Z,10.30
2022-11-14T14:31:03.638Z,10.30
2022-11-14T14:33:41.604Z,10.20
2022-11-14T14:36:21.046Z,10.20
2022-11-14T14:38:49.701Z,10.10
2022-11-14T14:41:20.958Z,10.10
2022-11-14T14:43:55.331Z,10.00
2022-11-14T14:46:34.274Z,9.90
2022-11-14T14:49:05.351Z,9.80
2022-11-14T14:51:35.782Z,9.80
2022-11-14T14:54:03.928Z,9.60
2022-11-14T14:56:33.212Z,9.50
2022-11-14T14:59:16.764Z,9.40
2022-11-14T15:01:44.731Z,9.30
2022-11-14T15:04:16.554Z,9.10
2022-11-14T15:06:47.520Z,9.10
2022-11-14T15:09:18.890Z,8.90
2022-11-14T15:11:51.292Z,8.80
2022-11-14T15:14:22.462Z,8.70
2022-11-14T15:16:51.108Z,8.70
2022-11-14T15:19:21.697Z,8.60
2022-11-14T15:22:04.018Z,8.50
2022-11-14T15:24:32.238Z,8.50
2022-11-14T15:27:05.210Z,8.40
2022-11-14T15:29:33.923Z,8.40
2022-11-14T15:32:03.299Z,8.30
2022-11-14T15:34:32.939Z,8.20
2022-11-14T15:37:22.709Z,8.20
2022-11-14T15:39:50.554Z,8.10
2022-11-14T15:42:28.658Z,8.00
2022-11-14T15:44:57.388Z,8.00
2022-11-14T15:47:27.356Z,7.90
2022-11-14T15:50:05.740Z,7.90
2022-11-14T15:52:36.070Z,7.90
2022-11-14T15:55:04.899Z,7.80
2022-11-14T15:57:39.550Z,7.70
2022-11-14T16:00:08.671Z,7.70
2022-11-14T16:02:46.262Z,7.60
2022-11-14T16:05:15.743Z,7.60
2022-11-14T16:07:43.813Z,7.60
2022-11-14T16:10:15.821Z,7.50
2022-11-14T16:12:50.994Z,7.50
2022-11-14T16:15:21.684Z,7.50
2022-11-14T16:17:51.096Z,7.50
2022-11-14T16:20:21.262Z,7.50
2022-11-14T16:22:50.523Z,7.40
2022-11-14T16:25:20.250Z,7.40
2022-11-14T16:27:49.642Z,7.30
2022-11-14T16:30:19.693Z,7.40
2022-11-14T16:32:49.424Z,7.30
2022-11-14T16:35:18.950Z,7.30
2022-11-14T16:37:47.144Z,7.30
2022-11-14T16:40:18.124Z,7.40
2022-11-14T16:42:46.298Z,7.30
2022-11-14T16:45:15.865Z,7.30
2022-11-14T16:47:43.930Z,7.40
2022-11-14T16:50:11.840Z,7.40
2022-11-14T16:52:40.547Z,7.40
2022-11-14T16:55:09.588Z,7.40
2022-11-14T16:57:37.958Z,7.40
2022-11-14T17:00:07.687Z,7.30
2022-11-14T17:02:36.826Z,7.30
2022-11-14T17:05:04.931Z,7.30
2022-11-14T17:07:33.437Z,7.30
2022-11-14T17:10:01.879Z,7.20
2022-11-14T17:12:29.948Z,7.20
2022-11-14T17:14:57.862Z,7.10
2022-11-14T17:17:26.040Z,7.10
2022-11-14T17:19:55.278Z,7.10
2022-11-14T17:22:23.040Z,7.10
2022-11-14T17:24:50.894Z,7.00
2022-11-14T17:27:18.728Z,6.90
2022-11-14T17:29:47.230Z,6.90
2022-11-14T17:32:15.021Z,6.90
2022-11-14T17:34:42.877Z,6.90
2022-11-14T17:37:12.112Z,6.90
2022-11-14T17:39:39.865Z,6.90
2022-11-14T17:42:08.272Z,6.80
2022-11-14T17:44:36.439Z,6.80
2022-11-14T17:47:04.222Z,6.70
2022-11-14T17:49:32.190Z,6.70
2022-11-14T17:52:00.029Z,6.60
2022-11-14T17:54:29.187Z,6.50
2022-11-14T17:56:57.446Z,6.40
2022-11-14T17:59:25.266Z,6.40
2022-11-14T18:01:54.483Z,6.40
2022-11-14T18:04:22.364Z,6.30
2022-11-14T18:06:50.427Z,6.30
2022-11-14T18:09:18.281Z,6.30
2022-11-14T18:11:47.457Z,6.30
2022-11-14T18:14:15.378Z,6.30
2022-11-14T18:17:10.353Z,6.30
2022-11-14T18:19:31.073Z,6.20
2022-11-14T18:21:58.975Z,6.20
2022-11-14T18:24:27.002Z,6.20
2022-11-14T18:26:56.193Z,6.20
2022-11-14T18:29:24.085Z,6.10
2022-11-14T18:31:51.975Z,6.10
2022-11-14T18:34:19.875Z,6.00
2022-11-14T18:36:48.257Z,6.00
2022-11-14T18:39:16.051Z,5.90
2022-11-14T18:41:43.852Z,5.90
2022-11-14T18:44:13.038Z,6.00
2022-11-14T18:46:40.897Z,6.00
2022-11-14T18:49:08.852Z,6.00
2022-11-14T18:51:41.932Z,5.90
2022-11-14T18:54:11.265Z,5.90
2022-11-14T18:56:39.773Z,5.90
2022-11-14T18:59:08.224Z,5.90
2022-11-14T19:01:37.506Z,5.90
2022-11-14T19:04:07.001Z,5.90
2022-11-14T19:06:36.548Z,5.90
2022-11-14T19:09:10.801Z,6.00
2022-11-14T19:11:56.819Z,5.90
2022-11-14T19:14:24.808Z,5.90
2022-11-14T19:16:54.145Z,5.80
2022-11-14T19:19:22.461Z,5.80
2022-11-14T19:21:50.504Z,5.80
2022-11-14T19:24:18.757Z,5.70
2022-11-14T19:26:46.560Z,5.70
2022-11-14T19:29:14.510Z,5.70
2022-11-14T19:31:43.249Z,5.70
2022-11-14T19:34:12.516Z,5.60
2022-11-14T19:39:28.691Z,5.60
2022-11-14T19:41:56.549Z,5.70
2022-11-14T19:44:24.394Z,5.50
2022-11-14T19:46:52.384Z,5.50
2022-11-14T19:49:21.636Z,5.50
2022-11-14T19:51:49.983Z,5.40
2022-11-14T19:54:17.867Z,5.40
2022-11-14T19:56:46.108Z,5.40
2022-11-14T19:59:15.511Z,5.40
2022-11-14T20:01:45.873Z,5.30
2022-11-14T20:04:14.234Z,5.30
2022-11-14T20:06:43.540Z,5.20
2022-11-14T20:09:12.200Z,5.10
2022-11-14T20:11:40.121Z,5.10
2022-11-14T20:14:08.255Z,5.10
2022-11-14T20:16:37.666Z,5.10
2022-11-14T20:19:05.861Z,5.00
2022-11-14T20:21:35.249Z,5.00
2022-11-14T20:24:04.934Z,5.00
2022-11-14T20:26:32.789Z,5.10
2022-11-14T20:29:00.693Z,5.10
2022-11-14T20:31:30.198Z,5.00
2022-11-14T20:33:58.189Z,5.00
2022-11-14T20:36:35.348Z,5.00
2022-11-14T20:39:14.006Z,5.00
2022-11-14T20:41:42.074Z,5.00
2022-11-14T20:44:10.102Z,4.90
2022-11-14T20:46:38.072Z,4.80
2022-11-14T20:49:07.988Z,4.90
2022-11-14T20:51:36.550Z,4.80
2022-11-14T20:54:04.576Z,4.90
2022-11-14T20:56:33.863Z,4.80
2022-11-14T20:59:01.731Z,4.80
2022-11-14T21:01:29.713Z,4.80
2022-11-14T21:03:57.634Z,4.80
2022-11-14T21:06:25.421Z,4.70
2022-11-14T21:08:53.248Z,4.60
2022-11-14T21:11:22.320Z,4.70
2022-11-14T21:13:57.444Z,4.70
2022-11-14T21:16:27.862Z,4.60
2022-11-14T21:18:56.728Z,4.60
2022-11-14T21:21:27.218Z,4.50
2022-11-14T21:23:56.080Z,4.60
2022-11-14T21:26:25.612Z,4.60
2022-11-14T21:28:57.401Z,4.50
2022-11-14T21:31:27.446Z,4.60
2022-11-14T21:33:57.677Z,4.60
2022-11-14T21:39:16.309Z,4.50
2022-11-14T21:41:45.211Z,4.50
2022-11-14T21:44:16.410Z,4.50
2022-11-14T21:46:46.135Z,4.60
2022-11-14T21:49:13.992Z,4.60
2022-11-14T21:51:42.007Z,4.50
2022-11-14T21:54:10.316Z,4.50
2022-11-14T21:56:38.650Z,4.50
2022-11-14T21:59:18.653Z,4.50
2022-11-14T22:02:06.340Z,4.50
2022-11-14T22:04:34.675Z,4.50
2022-11-14T22:07:03.908Z,4.60
2022-11-14T22:09:32.326Z,4.70
2022-11-14T22:12:00.471Z,4.70
2022-11-14T22:14:30.249Z,4.60
2022-11-14T22:16:58.770Z,4.60
2022-11-14T22:19:26.589Z,4.50
2022-11-14T22:21:54.390Z,4.60
2022-11-14T22:24:22.508Z,4.60
2022-11-14T22:26:50.322Z,4.60
2022-11-14T22:29:18.093Z,4.60
2022-11-14T22:31:47.479Z,4.60
2022-11-14T22:34:15.431Z,4.60
2022-11-14T22:36:43.290Z,4.60
2022-11-14T22:39:11.113Z,4.60
2022-11-14T22:41:39.050Z,4.70
2022-11-14T22:44:07.054Z,4.70
2022-11-14T22:46:34.917Z,4.70
2022-11-14T22:49:04.690Z,4.70
2022-11-14T22:51:32.702Z,4.60
2022-11-14T22:54:00.460Z,4.50
2022-11-14T22:56:29.981Z,4.50
2022-11-14T22:59:00.170Z,4.50
2022-11-14T23:01:29.823Z,4.50
2022-11-14T23:03:59.148Z,4.40
2022-11-14T23:06:29.478Z,4.30
2022-11-14T23:08:57.359Z,4.30
2022-11-14T23:11:27.115Z,4.40
2022-11-14T23:13:56.270Z,4.20
2022-11-14T23:16:25.868Z,4.30
2022-11-14T23:18:55.512Z,4.20
2022-11-14T23:21:25.236Z,4.30
2022-11-14T23:23:55.563Z,4.30
2022-11-14T23:26:24.187Z,4.20
2022-11-14T23:28:52.081Z,4.10
2022-11-14T23:31:19.953Z,4.10
2022-11-14T23:33:48.144Z,4.20
2022-11-14T23:36:16.611Z,4.10
2022-11-14T23:38:44.582Z,4.10
2022-11-14T23:41:18.239Z,4.00
2022-11-14T23:43:46.353Z,4.00
2022-11-14T23:46:14.488Z,3.90
2022-11-14T23:48:43.033Z,3.90
2022-11-14T23:51:11.422Z,4.00
2022-11-14T23:53:39.167Z,4.00
2022-11-14T23:56:07.267Z,4.10
2022-11-14T23:58:36.401Z,4.00
